Hepler, Kansas
Current Conditions -  °F | °C
As of 12:35 AM on Saturday 20 Dec 2014 (Local Time) from KPTS Reporting Station
Moderate Fog Moderate Fog  
Wind Chill: 38°   Ceiling: 200
Heat Index: 38°   Visibility: 0.5mi
Dew Point: 38°   Wind: 0mph
Humidity: 100%   Direction: NA
Pressure: 30.19"   Gusts: NA
Location:  37.66°N, 94.97°W
Report Text: KPTS 200635Z AUTO 00000KT 1/2SM FG OVC002 04/04 A3019 RMK AO2 T00350036
Loading
Personal Weather Stations






























Interactive Weather Map New forecast layout! Learn more

10-Day Weather Forecast

Advertisements
Track Severe Weather on mobile